createdAt,value
2023-05-02T00:00:05.903Z,7.95
2023-05-02T00:03:04.304Z,7.93
2023-05-02T00:05:33.598Z,7.91
2023-05-02T00:08:01.050Z,7.87
2023-05-02T00:10:27.461Z,7.82
2023-05-02T00:12:55.918Z,7.76
2023-05-02T00:15:22.561Z,7.68
2023-05-02T00:17:56.455Z,7.62
2023-05-02T00:20:26.880Z,7.56
2023-05-02T00:22:56.569Z,7.48
2023-05-02T00:25:23.170Z,7.41
2023-05-02T00:27:52.340Z,7.35
2023-05-02T00:30:20.529Z,7.30
2023-05-02T00:32:47.103Z,7.23
2023-05-02T00:35:14.011Z,7.17
2023-05-02T00:37:46.572Z,7.11
2023-05-02T00:40:13.459Z,7.05
2023-05-02T00:42:43.031Z,6.99
2023-05-02T00:45:09.805Z,7.02
2023-05-02T00:47:41.411Z,7.01
2023-05-02T00:50:11.833Z,7.03
2023-05-02T00:52:43.037Z,7.03
2023-05-02T00:55:09.616Z,7.00
2023-05-02T00:57:38.747Z,6.94
2023-05-02T01:00:08.573Z,6.82
2023-05-02T01:02:45.631Z,6.69
2023-05-02T01:05:33.454Z,6.62
2023-05-02T01:08:15.123Z,6.53
2023-05-02T01:10:58.024Z,6.45
2023-05-02T01:13:29.023Z,6.40
2023-05-02T01:16:01.783Z,6.42
2023-05-02T01:18:40.592Z,6.41
2023-05-02T01:21:12.150Z,6.35
2023-05-02T01:23:52.967Z,6.27
2023-05-02T01:26:32.352Z,6.19
2023-05-02T01:29:03.058Z,6.12
2023-05-02T01:31:36.537Z,6.07
2023-05-02T01:34:11.482Z,6.02
2023-05-02T01:36:50.965Z,5.98
2023-05-02T01:39:26.292Z,5.96
2023-05-02T01:41:57.838Z,5.99
2023-05-02T01:44:35.036Z,5.98
2023-05-02T01:47:12.192Z,5.95
2023-05-02T01:49:44.921Z,5.95
2023-05-02T01:52:13.537Z,5.94
2023-05-02T01:54:52.498Z,5.92
2023-05-02T01:57:19.541Z,5.92
2023-05-02T01:59:52.422Z,5.93
2023-05-02T02:02:26.636Z,5.92
2023-05-02T02:05:01.201Z,5.92
2023-05-02T02:07:33.862Z,5.89
2023-05-02T02:10:12.386Z,5.81
2023-05-02T02:12:48.651Z,5.73
2023-05-02T02:15:25.434Z,5.66
2023-05-02T02:18:00.622Z,5.65
2023-05-02T02:20:33.422Z,5.68
2023-05-02T02:23:08.941Z,5.70
2023-05-02T02:25:37.524Z,5.69
2023-05-02T02:28:10.442Z,5.68
2023-05-02T02:30:47.914Z,5.67
2023-05-02T02:33:14.514Z,5.64
2023-05-02T02:35:49.457Z,5.65
2023-05-02T02:38:45.655Z,5.66
2023-05-02T02:41:18.553Z,5.69
2023-05-02T02:44:23.951Z,5.69
2023-05-02T02:47:08.372Z,5.69
